Skip to Main Content

Video Notice: If you see just a black screen when trying to view Live Traffic cameras, please click inside the window to get video to play. An update to certain browsers is not allowing the video to auto-play when the window opens. 

SEARCH:
Location Air RH Dwp Precip Type Wind Speed Wind Gust Direction Pavement Temperature Date/Time
Hatem Bridge US 40 E/B 56 87 53 None 4 mph 6 mph SW 56 - 56 10/20/2018 10:35:00 AM
I-270 at I-370 55 92 53 None Calm Calm W 59 - 59 10/20/2018 10:35:00 AM
I-270 at MD-109 58 93 57 None Calm 7 mph W 60 - 63 10/20/2018 10:35:00 AM
I-495 at American Legion Bridge 57 91 55 None Calm Calm W 61 - 63 10/20/2018 10:35:00 AM
I-68 at Savage Mt 46 100 46 None 4 mph 8 mph S 48 - 48 10/20/2018 10:35:00 AM
I-68 at Sideling Hill 55 83 50 None 4 mph 9 mph S 65 - 65 10/20/2018 10:35:00 AM
I-68 at US 219 43 100 43 None 21 mph 35 mph W 46 - 48 10/20/2018 10:35:00 AM
I-68 at WV Line 46 98 46 None 7 mph 15 mph W 49 - 50 10/20/2018 10:35:00 AM
I-695 at I-83 56 92 54 None Calm 5 mph S 59 - 61 10/20/2018 10:35:00 AM
I-695 on FSK Bridge 56 94 54 None 5 mph 9 mph N 58 - 58 10/20/2018 10:36:00 AM
I-70 at Fred-Wash Co. 57 88 54 None 4 mph 15 mph NW 64 - 67 10/20/2018 10:35:00 AM
I-70 at I-695 55 92 53 None 4 mph 9 mph SW 57 - 63 10/20/2018 10:35:00 AM
I-70 at I-81 61 66 50 None 9 mph 17 mph W 63 - 63 10/20/2018 10:35:00 AM
I-70 at MD-27 57 92 55 None Calm 5 mph N 59 - 60 10/20/2018 10:35:00 AM
I-70 at MD-32 54 92 52 None Calm 8 mph W 60 - 61 10/20/2018 10:35:00 AM
I-83 at MD-137 56 99 56 None Calm 8 mph S 59 - 61 10/20/2018 10:35:00 AM
I-95 at I-695 NE 57 84 52 None 4 mph 7 mph SW 59 - 61 10/20/2018 10:36:00 AM
I-95 at Patuxent River 57 94 56 None Calm 11 mph SW 61 - 61 10/20/2018 10:35:00 AM
I-95 at Tydings Bridge 57 82 52 None Calm 5 mph SW 60 - 62 10/20/2018 10:35:00 AM
I-95/495 at I-295 61 81 56 None Calm 5 mph SW 59 - 60 10/20/2018 10:35:00 AM
I-97 at MD-100 56 90 54 None 6 mph 11 mph SW 59 - 60 10/20/2018 10:35:00 AM
I-97 at MD-32 56 91 54 None Calm 8 mph N 58 - 59 10/20/2018 10:35:00 AM
MD 136 @ MD 646 56 91 53 No Data Available Calm 7 mph W 63 - 63 10/20/2018 10:35:00 AM
MD 20 at MD 21 57 87 54 None 6 mph 11 mph W 62 - 62 10/20/2018 10:35:00 AM
MD 23 at Meadowtree Road 56 89 53 No Data Available Calm 4 mph N 62 - 62 10/20/2018 10:35:00 AM
MD 231 at Patuxent River 59 91 56 None 5 mph 7 mph NW 61 - 63 10/20/2018 10:35:00 AM
MD 24 at Jarrettsville Road 55 90 53 No Data Available Calm 6 mph W 62 - 62 10/20/2018 10:35:00 AM
MD 260 at Cox Rd 58 90 55 None Calm 6 mph NW 63 - 63 10/20/2018 10:35:00 AM
MD-135 at Salt Dome 43 100 43 Rain 5 mph 15 mph SW 47 - 47 10/20/2018 10:35:00 AM
MD-140 at MD-97 56 80 50 None 6 mph 14 mph W 62 - 64 10/20/2018 10:35:00 AM
MD-200 EB at Bonifant Rd - - - No Data Available - - No Data Available -
MD-200 WB at Muncaster Mill Rd 55 92 53 None Calm Calm SW 59 - 59 10/20/2018 10:35:00 AM
MD-213 at Sassafras River 58 98 58 None 6 mph 9 mph SW 61 - 61 10/20/2018 10:35:00 AM
MD-24 at Rock St Park 56 100 56 None Calm Calm E 57 - 57 10/20/2018 10:35:00 AM
MD-30 at PA Line 56 89 52 None 6 mph 11 mph W 64 - 64 10/20/2018 10:35:00 AM
MD-33 at Knapps Narrows Drawbridge 59 86 55 None 7 mph 13 mph W 64 - 64 10/20/2018 10:35:00 AM
MD-344 at MD-224 56 95 55 None Calm Calm E 60 - 60 10/20/2018 10:35:00 AM
MD-4 at Patuxent River 61 93 59 None 12 mph 18 mph W 61 - 63 10/20/2018 10:36:00 AM
MD-404 at Choptank River 59 87 55 None 5 mph 12 mph W 61 - 62 10/20/2018 10:35:00 AM
MD-43 at MD-150 58 92 56 None 6 mph 8 mph SW 59 - 62 10/20/2018 10:35:00 AM
MD-51 at Oldtown Salt Dome 57 70 47 None 8 mph 15 mph W 61 - 61 10/20/2018 10:35:00 AM
MD-64 at MD-418 57 71 48 None 11 mph 18 mph NW 62 - 64 10/20/2018 10:35:00 AM
US 301 at MD 305 57 89 54 None 6 mph 11 mph SW 60 - 60 10/20/2018 10:35:00 AM
US-1 at Baltimore / Harford Co. Line 56 89 53 None Calm 5 mph NE 56 - 58 10/20/2018 10:35:00 AM
US-1 at Conowingo Dam 58 98 58 None Calm 4 mph W 61 - 61 10/20/2018 10:35:00 AM
US-13 at US-113 61 93 59 Rain 6 mph 13 mph SW 64 - 65 10/20/2018 10:35:00 AM
US-13 at US-50 60 89 57 None 6 mph 12 mph W 62 - 62 10/20/2018 10:35:00 AM
US-15 at MD-140 59 68 49 None 5 mph 12 mph W 62 - 65 10/20/2018 10:35:00 AM
US-301 at MD-5 56 100 56 None Calm 5 mph S 60 - 60 10/20/2018 10:35:00 AM
US-301 at Potomac 62 87 59 None 7 mph 9 mph W 62 - 62 10/20/2018 10:36:00 AM
US-340 at MD-180 58 70 49 None 10 mph 18 mph W 60 - 62 10/20/2018 10:35:00 AM
US-50 at Choptank 60 94 59 None 11 mph 16 mph W 61 - 63 10/20/2018 10:35:00 AM
US-50 at I-95 57 94 56 None Calm 6 mph SW 59 - 62 10/20/2018 10:35:00 AM
US-50 at MD-2 57 98 57 None Calm 5 mph S 59 - 60 10/20/2018 10:35:00 AM
US-50 at MD-331 60 89 57 None 6 mph 11 mph W 61 - 63 10/20/2018 10:35:00 AM
US-50 at OC Drawbridge 61 98 60 None 5 mph 12 mph SW 63 - 63 10/20/2018 10:35:00 AM
US-50 at Table Rock Rd 43 100 43 None 8 mph 19 mph SW 48 - 48 10/20/2018 10:35:00 AM
US-50 Kent Narrow Bridge 58 95 57 None 7 mph 12 mph SW 60 - 61 10/20/2018 10:35:00 AM
WPL Pier 31 57 89 54 None 8 mph 13 mph W 62 - 62 10/20/2018 10:35:00 AM
Location Air RH Dwp Precip Type Wind Speed Wind Gust Direction Pavement Temperature Date/Time